Time;durP1;ratioP1;P1;durP2;ratioP2;P2;SDS_P1;SDS_P2;PMS_P1;PMS_P2;Temp;Humidity;BMP_temperature;BMP_pressure;BME280_temperature;BME280_humidity;BME280_pressure;Samples;Min_cycle;Max_cycle;Signal;HPM_P1;HPM_P2
2021/03/28 00:00:14;;;;;;;3.33;1.63;;;;;;;10.56;42.75;101226.06;5112670;28;20043;-69
2021/03/28 00:02:49;;;;;;;2.55;1.15;;;;;;;10.64;41.85;101249.75;5112905;28;20473;-70
2021/03/28 00:05:29;;;;;;;3.17;1.15;;;;;;;10.62;42.44;101248.09;5112961;28;20027;-69
2021/03/28 00:07:59;;;;;;;3.78;1.30;;;;;;;10.50;42.01;101241.47;5112984;28;20032;-68
2021/03/28 00:10:33;;;;;;;3.15;1.20;;;;;;;10.63;42.08;101250.69;5113009;28;20114;-68
2021/03/28 00:13:13;;;;;;;3.17;1.40;;;;;;;10.46;42.13;101223.88;5112727;28;20035;-69
2021/03/28 00:15:45;;;;;;;1.63;1.00;;;;;;;10.70;41.69;101260.13;5094786;28;20035;-70
2021/03/28 00:18:30;;;;;;;3.28;1.20;;;;;;;10.49;41.60;101234.41;5112681;28;20062;-69
2021/03/28 00:21:12;;;;;;;2.85;0.85;;;;;;;10.30;41.78;101186.34;5095155;28;20051;-68
2021/03/28 00:23:49;;;;;;;2.92;1.08;;;;;;;10.68;41.20;101245.97;5115437;28;20466;-68
2021/03/28 00:26:30;;;;;;;3.17;1.20;;;;;;;10.69;41.21;101269.06;5116784;28;20081;-68
2021/03/28 00:29:22;;;;;;;3.33;1.40;;;;;;;10.73;40.64;101265.34;5116409;28;20084;-67
2021/03/28 00:31:54;;;;;;;1.80;0.93;;;;;;;10.74;40.29;101271.53;5116321;28;20031;-67
2021/03/28 00:34:25;;;;;;;3.00;1.10;;;;;;;10.79;39.77;101270.38;5116664;28;20032;-67
2021/03/28 00:36:59;;;;;;;2.70;1.10;;;;;;;10.59;40.19;101241.06;5116341;28;20031;-67
2021/03/28 00:39:57;;;;;;;2.45;1.20;;;;;;;10.75;40.03;101260.78;5116734;28;20088;-67
2021/03/28 00:42:23;;;;;;;2.97;1.17;;;;;;;10.71;40.55;101267.22;5116163;28;20035;-67
2021/03/28 00:45:09;;;;;;;2.67;1.20;;;;;;;10.57;40.39;101234.94;5116135;28;20035;-67
2021/03/28 00:47:36;;;;;;;2.83;1.38;;;;;;;10.56;40.54;101235.88;5116512;28;20111;-66
2021/03/28 00:50:26;;;;;;;2.58;1.30;;;;;;;10.72;40.72;101262.75;5115958;28;20058;-68
2021/03/28 00:53:01;;;;;;;2.72;1.30;;;;;;;10.45;40.62;101195.47;5115984;28;20028;-67
2021/03/28 00:55:37;;;;;;;1.77;1.08;;;;;;;10.68;40.70;101240.66;5116025;28;20501;-67
2021/03/28 00:58:19;;;;;;;1.30;0.80;;;;;;;10.57;40.88;101237.59;5115954;28;20461;-67
2021/03/28 01:01:38;;;;;;;3.65;1.20;;;;;;;10.64;41.83;101249.75;5115866;28;20027;-67
2021/03/28 01:04:48;;;;;;;3.70;1.35;;;;;;;10.71;41.46;101253.88;5073533;28;20047;-67
2021/03/28 01:07:17;;;;;;;2.45;1.25;;;;;;;10.19;42.08;101194.78;5076581;28;20040;-65
2021/03/28 01:10:16;;;;;;;2.38;1.05;;;;;;;10.50;42.53;101258.34;5116164;28;20023;-70
2021/03/28 01:13:18;;;;;;;1.88;1.10;;;;;;;10.44;42.89;101265.75;5115602;28;20027;-74
2021/03/28 01:16:34;;;;;;;3.72;1.40;;;;;;;10.32;43.47;101276.00;5097070;28;20040;-68
2021/03/28 01:19:22;;;;;;;3.22;1.13;;;;;;;10.32;43.66;101281.34;5009642;28;20552;-68
2021/03/28 01:22:11;;;;;;;4.32;1.30;;;;;;;10.24;44.34;101283.47;5067614;28;20067;-67
2021/03/28 01:24:44;;;;;;;2.30;1.10;;;;;;;10.16;44.48;101282.03;5115579;28;20148;-66
2021/03/28 01:27:27;;;;;;;2.28;1.20;;;;;;;10.22;44.35;101284.47;5115897;28;20413;-66
2021/03/28 01:29:58;;;;;;;1.55;1.00;;;;;;;10.17;44.75;101284.63;5115856;28;20058;-67
2021/03/28 01:32:31;;;;;;;3.13;1.38;;;;;;;10.02;45.46;101275.47;5115310;28;20032;-67
2021/03/28 01:35:22;;;;;;;3.00;1.35;;;;;;;10.14;45.62;101283.91;5114657;28;20446;-66
2021/03/28 01:38:02;;;;;;;3.50;1.33;;;;;;;10.09;45.56;101299.22;5096769;28;20050;-67
2021/03/28 01:40:42;;;;;;;3.80;1.52;;;;;;;9.87;46.26;101267.25;5115322;28;20114;-67
2021/03/28 01:43:19;;;;;;;2.13;1.30;;;;;;;9.97;46.49;101295.25;5114888;28;20039;-68
2021/03/28 01:45:57;;;;;;;3.38;1.48;;;;;;;9.74;46.99;101272.19;5115136;28;20028;-67
2021/03/28 01:48:58;;;;;;;2.13;1.17;;;;;;;9.89;47.04;101286.72;5115262;28;20049;-66
2021/03/28 01:51:33;;;;;;;3.75;1.20;;;;;;;9.71;47.37;101283.00;5115398;28;20024;-68
2021/03/28 01:54:34;;;;;;;3.50;1.40;;;;;;;9.84;47.87;101305.53;5115026;28;20035;-68
2021/03/28 01:57:13;;;;;;;3.15;1.48;;;;;;;9.63;48.12;101275.28;5114706;28;20031;-68
2021/03/28 02:00:05;;;;;;;2.22;1.27;;;;;;;9.83;48.38;101302.94;5115299;28;20098;-68
2021/03/28 02:02:57;;;;;;;3.00;1.70;;;;;;;9.81;48.83;101316.31;5114969;28;20038;-66
2021/03/28 02:05:41;;;;;;;3.75;1.40;;;;;;;9.75;49.28;101316.59;5109919;28;20039;-66
2021/03/28 02:08:26;;;;;;;;;;;;;;;9.66;49.72;101312.50;5115147;28;20032;-66
2021/03/28 02:11:20;;;;;;;3.95;1.48;;;;;;;9.67;50.16;101338.19;5114562;28;20006;-67
2021/03/28 02:14:21;;;;;;;3.60;1.80;;;;;;;9.30;50.23;101279.31;5070695;28;20075;-68
2021/03/28 02:16:52;;;;;;;2.80;1.50;;;;;;;9.56;50.70;101343.09;5096402;28;20386;-68
2021/03/28 02:19:26;;;;;;;2.97;1.50;;;;;;;9.16;50.97;101283.34;5114600;28;20048;-70
2021/03/28 02:22:12;;;;;;;4.78;2.00;;;;;;;9.50;50.77;101351.28;5114386;28;20027;-69
2021/03/28 02:24:38;;;;;;;2.42;1.25;;;;;;;9.45;51.15;101347.94;5114735;28;20027;-68
2021/03/28 02:27:23;;;;;;;2.60;1.08;;;;;;;9.44;51.20;101349.72;5096173;28;20043;-68
2021/03/28 02:30:05;;;;;;;3.92;1.77;;;;;;;9.22;51.77;101327.50;5114397;28;20389;-69
2021/03/28 02:32:36;;;;;;;3.63;1.80;;;;;;;9.36;51.86;101350.94;5114297;28;20053;-71
2021/03/28 02:35:30;;;;;;;2.92;1.50;;;;;;;9.21;52.04;101331.09;5113891;28;20096;-69
2021/03/28 02:38:12;;;;;;;3.78;1.70;;;;;;;9.18;52.23;101321.44;5113902;28;20023;-71
2021/03/28 02:41:03;;;;;;;4.97;1.90;;;;;;;9.35;51.99;101354.53;5114339;28;20038;-68
2021/03/28 02:43:43;;;;;;;6.70;2.03;;;;;;;9.29;52.15;101363.63;5068539;28;20043;-68
2021/03/28 02:46:48;;;;;;;5.38;1.90;;;;;;;9.30;52.38;101377.81;5113552;28;20114;-68
2021/03/28 02:49:37;;;;;;;4.30;2.10;;;;;;;9.29;52.60;101386.72;5114069;28;20355;-67
2021/03/28 02:52:28;;;;;;;3.53;2.05;;;;;;;9.04;53.04;101342.34;5113893;28;20031;-66
2021/03/28 02:55:22;;;;;;;4.00;2.00;;;;;;;9.16;53.08;101376.50;5113670;28;20035;-67
2021/03/28 02:57:59;;;;;;;4.57;2.13;;;;;;;8.99;52.97;101359.44;5113974;28;20031;-66
2021/03/28 03:00:30;;;;;;;5.07;2.20;;;;;;;9.06;53.31;101391.06;5113885;28;20032;-67
2021/03/28 03:03:33;;;;;;;6.18;2.10;;;;;;;9.07;53.25;101391.94;5113600;28;20031;-68
2021/03/28 03:06:11;;;;;;;6.35;2.42;;;;;;;9.04;53.16;101403.56;5095213;28;20107;-68
2021/03/28 03:08:42;;;;;;;5.53;2.30;;;;;;;9.02;52.52;101415.19;5113825;28;20028;-66
2021/03/28 03:11:34;;;;;;;5.20;2.58;;;;;;;9.06;51.77;101417.69;5113454;28;20036;-67
2021/03/28 03:14:36;;;;;;;4.43;2.25;;;;;;;9.13;50.16;101408.56;5113246;28;20483;-69
2021/03/28 03:17:21;;;;;;;4.03;1.92;;;;;;;9.16;50.03;101408.44;5113015;28;20440;-68
2021/03/28 03:20:20;;;;;;;3.35;1.67;;;;;;;9.13;48.64;101395.25;5113644;28;20031;-68
2021/03/28 03:23:20;;;;;;;3.65;1.80;;;;;;;9.09;48.50;101404.28;5095391;28;20118;-68
2021/03/28 03:26:22;;;;;;;4.63;1.70;;;;;;;9.07;48.35;101402.59;5113648;28;20035;-68
2021/03/28 03:28:57;;;;;;;5.35;2.25;;;;;;;8.96;48.30;101418.94;5113601;28;20032;-68
2021/03/28 03:31:53;;;;;;;3.83;1.67;;;;;;;8.84;48.73;101416.72;5095646;28;20028;-66
2021/03/28 03:34:49;;;;;;;4.43;1.73;;;;;;;8.60;49.62;101408.66;5113657;28;20031;-67
2021/03/28 03:37:36;;;;;;;4.53;1.88;;;;;;;8.64;49.24;101416.53;5113084;28;20111;-66
2021/03/28 03:40:39;;;;;;;6.68;1.92;;;;;;;8.52;49.47;101412.50;5113597;28;20049;-68
2021/03/28 03:43:16;;;;;;;3.88;1.77;;;;;;;8.50;49.39;101420.53;5113028;28;20035;-68
2021/03/28 03:46:03;;;;;;;3.15;1.52;;;;;;;8.42;50.01;101430.53;5113179;28;20432;-69
2021/03/28 03:48:51;;;;;;;4.25;1.73;;;;;;;8.42;49.06;101430.53;5113513;28;20028;-68
2021/03/28 03:51:45;;;;;;;3.40;1.55;;;;;;;8.44;48.35;101428.69;5113306;28;20496;-67
2021/03/28 03:54:45;;;;;;;4.40;1.90;;;;;;;8.33;48.40;101429.00;5069566;28;20059;-69
2021/03/28 03:57:27;;;;;;;3.92;1.50;;;;;;;8.30;48.35;101421.13;5107561;28;20043;-68
2021/03/28 04:00:02;;;;;;;4.93;1.38;;;;;;;8.32;48.16;101426.41;5117130;28;20084;-66
2021/03/28 04:02:40;;;;;;;3.38;1.35;;;;;;;8.13;48.82;101422.59;5117467;28;20023;-66
2021/03/28 04:05:27;;;;;;;4.47;1.55;;;;;;;8.14;49.24;101440.28;5116967;28;20023;-65
2021/03/28 04:08:14;;;;;;;4.82;1.60;;;;;;;8.11;49.29;101443.03;5117202;28;20381;-66
2021/03/28 04:11:02;;;;;;;3.75;1.40;;;;;;;8.12;49.28;101456.28;5098979;28;20023;-66
2021/03/28 04:13:38;;;;;;;3.08;1.40;;;;;;;8.08;49.35;101445.75;5117673;28;20405;-68
2021/03/28 04:16:21;;;;;;;3.83;1.48;;;;;;;8.06;49.70;101459.09;5116662;28;20489;-69
2021/03/28 04:19:17;;;;;;;4.43;1.50;;;;;;;7.95;50.34;101469.19;5117322;28;20048;-69
2021/03/28 04:22:04;;;;;;;3.22;1.42;;;;;;;8.03;50.12;101476.03;5117304;28;20032;-66
2021/03/28 04:24:45;;;;;;;4.78;1.85;;;;;;;7.85;49.81;101433.19;5116909;28;20033;-66
2021/03/28 04:27:31;;;;;;;4.03;1.52;;;;;;;7.93;49.18;101449.78;5116859;28;20122;-67
2021/03/28 04:29:57;;;;;;;4.22;1.48;;;;;;;8.07;49.18;101489.22;5116677;28;20038;-70
2021/03/28 04:32:52;;;;;;;3.95;1.60;;;;;;;8.09;49.04;101492.69;5098587;28;20028;-67
2021/03/28 04:35:41;;;;;;;3.45;1.35;;;;;;;7.96;49.64;101508.13;5116370;28;20372;-66
2021/03/28 04:38:24;;;;;;;4.65;1.50;;;;;;;8.01;49.11;101503.56;5116521;28;20027;-67
2021/03/28 04:41:24;;;;;;;4.50;1.50;;;;;;;7.96;49.55;101509.00;5116681;28;20501;-66
2021/03/28 04:44:26;;;;;;;2.42;1.10;;;;;;;7.87;49.54;101501.28;5116384;28;20500;-67
2021/03/28 04:47:19;;;;;;;3.22;1.30;;;;;;;7.87;49.98;101519.88;5098482;28;20118;-67
2021/03/28 04:49:53;;;;;;;2.75;1.25;;;;;;;7.90;50.10;101514.47;5116583;28;20038;-67
2021/03/28 04:53:03;;;;;;;3.67;1.40;;;;;;;7.42;50.58;101447.72;5116037;28;20027;-67
2021/03/28 04:56:00;;;;;;;2.00;1.25;;;;;;;7.82;50.17;101519.16;5116578;28;20031;-67
2021/03/28 04:58:49;;;;;;;2.88;1.23;;;;;;;7.46;50.43;101467.97;5059679;28;20046;-66
2021/03/28 05:01:34;;;;;;;4.10;1.30;;;;;;;7.68;50.29;101505.41;5115878;28;20114;-65
2021/03/28 05:04:35;;;;;;;2.78;1.20;;;;;;;7.83;50.86;101531.53;5116035;28;20482;-66
2021/03/28 05:07:28;;;;;;;3.05;1.13;;;;;;;7.67;51.54;101535.53;5115614;28;20032;-65
2021/03/28 05:10:17;;;;;;;4.80;1.60;;;;;;;7.41;51.77;101523.81;5114828;28;20500;-66
2021/03/28 05:12:54;;;;;;;2.47;1.20;;;;;;;7.53;52.09;101558.91;5115902;28;20035;-66
2021/03/28 05:15:44;;;;;;;2.80;1.40;;;;;;;7.48;52.21;101561.69;5115415;28;20035;-66
2021/03/28 05:18:40;;;;;;;3.10;1.48;;;;;;;7.50;52.00;101570.50;5115543;28;20083;-66
2021/03/28 05:21:27;;;;;;;4.30;1.30;;;;;;;7.45;52.13;101578.59;5115577;28;20044;-65
2021/03/28 05:24:28;;;;;;;3.97;1.65;;;;;;;7.42;52.31;101578.66;5115590;28;20092;-65
2021/03/28 05:27:22;;;;;;;5.40;1.33;;;;;;;7.42;52.25;101576.00;5097627;28;20038;-66
2021/03/28 05:30:02;;;;;;;2.88;1.30;;;;;;;7.47;51.79;101584.72;5115528;28;20060;-66
2021/03/28 05:32:39;;;;;;;2.65;1.38;;;;;;;7.54;51.64;101587.22;5115755;28;20035;-65
2021/03/28 05:35:26;;;;;;;3.97;1.50;;;;;;;7.65;51.84;101598.44;5115216;28;20085;-66
2021/03/28 05:38:12;;;;;;;3.10;1.48;;;;;;;7.62;52.11;101596.72;5115280;28;20035;-65
2021/03/28 05:40:48;;;;;;;3.17;1.50;;;;;;;7.63;52.06;101594.97;5115870;28;20034;-64
2021/03/28 05:43:38;;;;;;;2.47;1.25;;;;;;;7.59;52.45;101601.25;5115137;28;20035;-64
2021/03/28 05:46:22;;;;;;;5.03;1.85;;;;;;;7.49;53.02;101615.69;5114975;28;20036;-68
2021/03/28 05:49:05;;;;;;;2.97;1.50;;;;;;;7.44;52.92;101611.38;5115533;28;20426;-67
2021/03/28 05:51:42;;;;;;;2.03;1.10;;;;;;;7.32;52.98;101611.66;5115291;28;20027;-67
2021/03/28 05:54:45;;;;;;;2.08;1.05;;;;;;;7.29;52.93;101625.00;5096572;28;20118;-68
2021/03/28 05:57:16;;;;;;;1.52;0.85;;;;;;;7.45;52.73;101625.50;5114835;28;20031;-67
2021/03/28 06:00:21;;;;;;;1.85;1.15;;;;;;;7.35;53.03;101635.50;5115539;28;20067;-66
2021/03/28 06:02:52;;;;;;;3.70;1.15;;;;;;;7.31;53.07;101627.63;5092216;28;20124;-66
2021/03/28 06:05:21;;;;;;;3.15;1.45;;;;;;;7.27;52.84;101642.75;5114623;28;20034;-65
2021/03/28 06:08:07;;;;;;;3.03;1.35;;;;;;;7.18;53.29;101637.69;5114841;28;20043;-66
2021/03/28 06:11:16;;;;;;;3.13;1.55;;;;;;;7.38;53.13;101656.63;5114847;28;20069;-67
2021/03/28 06:13:54;;;;;;;1.92;1.08;;;;;;;7.28;53.08;101649.81;5114692;28;20126;-67
2021/03/28 06:16:56;;;;;;;3.30;1.50;;;;;;;7.37;52.59;101651.38;5114328;28;20043;-66
2021/03/28 06:19:37;;;;;;;3.30;1.42;;;;;;;7.58;52.62;101660.56;5114033;28;20051;-69
2021/03/28 06:22:28;;;;;;;3.65;1.42;;;;;;;7.03;52.42;101590.28;5114046;28;20408;-75
2021/03/28 06:25:14;;;;;;;3.03;1.20;;;;;;;7.26;52.65;101662.25;5114376;28;20059;-68
2021/03/28 06:28:01;;;;;;;5.00;1.52;;;;;;;7.35;53.17;101675.31;5114290;28;20028;-68
2021/03/28 06:30:48;;;;;;;3.13;1.60;;;;;;;7.52;52.40;101674.00;5114299;28;20024;-68
2021/03/28 06:33:37;;;;;;;3.15;1.42;;;;;;;7.55;52.59;101677.47;5114146;28;20027;-69
2021/03/28 06:36:35;;;;;;;2.03;1.10;;;;;;;7.26;53.13;101683.50;5114327;28;20106;-68
2021/03/28 06:39:38;;;;;;;3.85;1.48;;;;;;;7.38;52.81;101677.88;5058206;28;20375;-68
2021/03/28 06:42:32;;;;;;;3.78;1.58;;;;;;;7.57;51.82;101691.56;5114129;28;20057;-68
2021/03/28 06:45:19;;;;;;;3.08;1.40;;;;;;;7.64;51.88;101694.97;5100142;28;20379;-68
2021/03/28 06:48:17;;;;;;;3.10;1.40;;;;;;;7.88;51.99;101694.31;5113945;28;20039;-69
2021/03/28 06:51:23;;;;;;;3.17;1.70;;;;;;;8.55;50.42;101704.91;5114321;28;20043;-71
2021/03/28 06:54:10;;;;;;;3.78;1.40;;;;;;;9.07;48.08;101693.59;5114197;28;20462;-67
2021/03/28 06:56:48;;;;;;;4.22;1.30;;;;;;;8.64;47.61;101631.97;5114234;28;20071;-66
2021/03/28 06:59:29;;;;;;;4.05;1.80;;;;;;;8.98;47.50;101685.03;5113776;28;20031;-67
2021/03/28 07:02:22;;;;;;;3.70;1.60;;;;;;;9.18;47.36;101702.13;5095777;28;20042;-68
2021/03/28 07:05:13;;;;;;;2.77;1.17;;;;;;;8.94;47.03;101720.63;5113871;28;20493;-69
2021/03/28 07:07:48;;;;;;;3.35;1.35;;;;;;;8.88;48.12;101719.03;5113918;28;20020;-68
2021/03/28 07:10:29;;;;;;;3.67;1.60;;;;;;;8.78;48.26;101736.16;5113590;28;20038;-72
2021/03/28 07:13:33;;;;;;;3.67;1.38;;;;;;;8.90;46.28;101741.16;5113799;28;20024;-72
2021/03/28 07:16:15;;;;;;;2.65;1.30;;;;;;;8.62;46.13;101745.53;5118594;28;20040;-71
2021/03/28 07:19:05;;;;;;;4.25;1.30;;;;;;;8.72;46.14;101752.31;5113502;28;20051;-69
2021/03/28 07:21:31;;;;;;;3.75;1.30;;;;;;;8.78;46.30;101744.13;5110016;28;20036;-67
2021/03/28 07:24:22;;;;;;;2.88;1.20;;;;;;;8.94;46.39;101745.44;5090050;28;20062;-68
2021/03/28 07:27:15;;;;;;;2.83;1.00;;;;;;;8.64;46.83;101746.34;5105814;28;20031;-68
2021/03/28 07:29:59;;;;;;;3.35;1.35;;;;;;;8.94;46.63;101747.25;5113026;28;20036;-71
2021/03/28 07:32:31;;;;;;;;;;;;;;;8.99;46.09;101740.00;5112464;28;20095;-72
2021/03/28 07:35:37;;;;;;;3.65;1.30;;;;;;;8.82;46.34;101743.16;5112785;28;19942;-74
2021/03/28 07:38:40;;;;;;;3.97;1.45;;;;;;;9.03;45.98;101742.50;5112548;28;20031;-73
2021/03/28 07:41:20;;;;;;;3.53;1.40;;;;;;;9.22;44.77;101753.47;5112395;28;20046;-71
2021/03/28 07:44:23;;;;;;;2.75;1.52;;;;;;;9.26;45.71;101752.44;5112519;28;20040;-75
2021/03/28 07:47:11;;;;;;;2.15;1.10;;;;;;;9.30;42.98;101764.75;5112668;28;20043;-74
2021/03/28 07:49:59;;;;;;;2.83;1.33;;;;;;;9.31;42.15;101762.97;5094371;28;20515;-73
2021/03/28 07:53:21;;;;;;;2.92;1.20;;;;;;;9.29;42.00;101770.13;5112121;28;20020;-71
2021/03/28 07:55:55;;;;;;;2.60;1.13;;;;;;;9.31;41.27;101768.28;5080967;28;20039;-70
2021/03/28 07:58:40;;;;;;;2.72;1.35;;;;;;;9.15;40.54;101731.47;5112273;28;20107;-68
2021/03/28 08:01:29;;;;;;;1.33;0.88;;;;;;;9.36;40.71;101767.25;5112570;28;20032;-71
2021/03/28 08:03:56;;;;;;;2.13;1.00;;;;;;;9.41;40.18;101780.41;5112657;28;20441;-71
2021/03/28 08:06:27;;;;;;;2.83;1.00;;;;;;;9.36;40.13;101777.91;5112763;28;20390;-70
2021/03/28 08:09:35;;;;;;;5.50;1.20;;;;;;;9.25;39.89;101773.78;5112194;28;20059;-72
2021/03/28 08:12:23;;;;;;;2.33;0.88;;;;;;;9.15;39.59;101791.84;5112035;28;20028;-74
2021/03/28 08:15:36;;;;;;;3.45;1.20;;;;;;;9.22;39.12;101806.72;5112325;28;20367;-75
2021/03/28 08:18:13;;;;;;;3.63;1.60;;;;;;;9.27;38.78;101787.97;5012718;28;20069;-69
2021/03/28 08:20:48;;;;;;;3.33;1.27;;;;;;;9.36;38.84;101774.34;5108602;28;20116;-72
2021/03/28 08:23:41;;;;;;;3.65;1.00;;;;;;;9.53;38.47;101795.13;5113582;28;20031;-70
2021/03/28 08:26:16;;;;;;;3.70;1.58;;;;;;;9.78;38.39;101790.78;5112594;28;20040;-71
2021/03/28 08:28:48;;;;;;;2.42;1.00;;;;;;;9.81;37.20;101805.78;5112316;28;20478;-71
2021/03/28 08:31:36;;;;;;;1.73;1.10;;;;;;;9.59;37.87;101786.94;5111981;28;20023;-70
2021/03/28 08:34:04;;;;;;;3.50;1.10;;;;;;;10.01;37.70;101800.66;5112023;28;20043;-70
2021/03/28 08:37:01;;;;;;;2.72;1.27;;;;;;;10.13;36.36;101796.72;5112651;28;20024;-68
2021/03/28 08:39:45;;;;;;;2.33;1.00;;;;;;;10.29;35.16;101801.50;5112294;28;20046;-71
2021/03/28 08:42:52;;;;;;;4.88;1.17;;;;;;;10.70;34.57;101798.31;5111801;28;20035;-68
2021/03/28 08:45:32;;;;;;;5.53;1.10;;;;;;;10.76;32.83;101796.28;5113853;28;20036;-78
2021/03/28 08:48:15;;;;;;;2.00;1.05;;;;;;;10.79;31.26;101785.50;5115862;28;20039;-73
2021/03/28 08:51:17;;;;;;;2.55;1.20;;;;;;;10.73;31.99;101776.88;5115472;28;20047;-76
2021/03/28 08:53:57;;;;;;;2.97;1.10;;;;;;;11.01;32.00;101798.94;5115742;28;20056;-75
2021/03/28 08:56:41;;;;;;;4.60;1.40;;;;;;;11.32;30.91;101798.63;5101475;28;20041;-73
2021/03/28 08:59:32;;;;;;;2.20;1.10;;;;;;;11.23;31.92;101785.63;5115809;28;20061;-73
2021/03/28 09:02:17;;;;;;;2.83;1.17;;;;;;;11.15;31.15;101766.34;5097935;28;20081;-72
2021/03/28 09:05:24;;;;;;;1.95;1.10;;;;;;;11.19;30.89;101781.31;5115918;28;20031;-74
2021/03/28 09:08:09;;;;;;;3.13;1.40;;;;;;;11.08;31.94;101787.06;5099617;28;20043;-70
2021/03/28 09:11:12;;;;;;;1.90;1.02;;;;;;;11.14;31.21;101813.56;5121278;28;20038;-70
2021/03/28 09:13:59;;;;;;;4.97;1.40;;;;;;;11.06;31.58;101817.44;5115621;28;20031;-67
2021/03/28 09:16:27;;;;;;;3.70;1.30;;;;;;;11.10;33.52;101800.41;5115699;28;20043;-71
2021/03/28 09:19:11;;;;;;;3.25;1.50;;;;;;;11.15;33.67;101806.41;5115627;28;20386;-70
2021/03/28 09:21:47;;;;;;;3.03;1.67;;;;;;;11.16;33.36;101795.66;5115251;28;20081;-70
2021/03/28 09:24:35;;;;;;;1.55;0.85;;;;;;;10.97;33.14;101785.75;5115432;28;20027;-70
2021/03/28 09:27:18;;;;;;;4.22;1.20;;;;;;;11.11;31.88;101802.13;5115670;28;20028;-68
2021/03/28 09:29:55;;;;;;;2.53;1.00;;;;;;;11.06;31.94;101791.59;5115297;28;20470;-69
2021/03/28 09:32:36;;;;;;;4.35;1.40;;;;;;;11.24;32.14;101806.06;5097483;28;20493;-68
2021/03/28 09:35:35;;;;;;;3.67;1.42;;;;;;;11.03;32.70;101801.53;5115370;28;20043;-69
2021/03/28 09:38:39;;;;;;;3.45;1.30;;;;;;;11.07;33.25;101813.84;5115050;28;20034;-69
2021/03/28 09:41:21;;;;;;;4.30;1.27;;;;;;;11.10;33.77;101787.03;5058629;28;20047;-70
2021/03/28 09:44:24;;;;;;;3.33;1.30;;;;;;;11.03;33.62;101797.06;5115207;28;20466;-69
2021/03/28 09:47:03;;;;;;;2.20;1.10;;;;;;;10.80;33.85;101778.34;5115154;28;20076;-68
2021/03/28 09:49:47;;;;;;;2.83;1.23;;;;;;;11.44;32.80;101797.28;5114784;28;20035;-68
2021/03/28 09:52:31;;;;;;;3.33;1.45;;;;;;;11.69;32.17;101792.72;5115106;28;20030;-70
2021/03/28 09:55:15;;;;;;;5.35;1.55;;;;;;;11.55;31.92;101796.84;5114501;28;20031;-69
2021/03/28 09:58:18;;;;;;;4.57;1.30;;;;;;;11.68;31.35;101792.78;5114207;28;20119;-69
2021/03/28 10:00:57;;;;;;;3.30;1.30;;;;;;;11.87;30.91;101783.09;5113636;28;20051;-69
2021/03/28 10:03:26;;;;;;;3.90;1.45;;;;;;;11.81;29.70;101769.97;5114445;28;20055;-69
2021/03/28 10:06:01;;;;;;;3.15;1.20;;;;;;;11.57;28.26;101795.84;5114360;28;20031;-72
2021/03/28 10:08:35;;;;;;;2.13;1.10;;;;;;;11.47;27.90;101776.63;5114610;28;20062;-69
2021/03/28 10:11:14;;;;;;;3.25;1.20;;;;;;;11.62;28.06;101796.56;5114774;28;20031;-69
2021/03/28 10:14:17;;;;;;;4.55;1.17;;;;;;;11.71;28.79;101806.00;5095506;28;20038;-69
2021/03/28 10:17:19;;;;;;;4.60;1.20;;;;;;;11.50;28.91;101767.66;5113489;28;20107;-69
2021/03/28 10:19:49;;;;;;;4.57;1.50;;;;;;;11.33;28.82;101762.97;5093801;28;20091;-69
2021/03/28 10:22:39;;;;;;;2.58;1.05;;;;;;;11.68;27.96;101796.31;5094052;28;20032;-69
2021/03/28 10:26:01;;;;;;;4.07;1.50;;;;;;;11.49;27.96;101789.09;5094268;28;20036;-69
2021/03/28 10:28:38;;;;;;;3.30;1.27;;;;;;;11.45;28.75;101783.84;5011795;28;20042;-74
2021/03/28 10:31:16;;;;;;;2.58;1.30;;;;;;;11.64;28.55;101778.66;5011860;28;20041;-69
2021/03/28 10:33:51;;;;;;;3.45;1.20;;;;;;;11.73;28.31;101782.75;5067821;28;20036;-68
2021/03/28 10:36:47;;;;;;;3.33;1.00;;;;;;;11.42;28.70;101789.34;5093972;28;20032;-69
2021/03/28 10:39:21;;;;;;;4.00;1.25;;;;;;;11.43;27.08;101791.06;5093667;28;20073;-69
2021/03/28 10:42:02;;;;;;;2.13;1.25;;;;;;;11.66;27.38;101765.22;5092379;28;20028;-70
2021/03/28 10:45:01;;;;;;;2.38;1.35;;;;;;;11.65;26.60;101758.13;5093840;28;20038;-70
2021/03/28 10:47:54;;;;;;;3.30;1.20;;;;;;;11.49;26.84;101783.75;5093683;28;20047;-70
2021/03/28 10:50:33;;;;;;;5.73;1.37;;;;;;;11.35;27.23;101738.88;5093777;28;20068;-68
2021/03/28 10:53:08;;;;;;;3.72;1.30;;;;;;;11.62;27.11;101780.53;5093577;28;20036;-68
2021/03/28 10:55:58;;;;;;;3.85;1.35;;;;;;;11.46;27.03;101774.91;5093344;28;20034;-70
2021/03/28 10:59:08;;;;;;;2.65;1.40;;;;;;;11.32;27.09;101774.59;5093402;28;20032;-69
2021/03/28 11:02:10;;;;;;;4.30;1.40;;;;;;;11.44;27.02;101782.13;5093338;28;20032;-69
2021/03/28 11:04:51;;;;;;;3.53;1.30;;;;;;;11.54;26.95;101771.94;5092086;28;20034;-69
2021/03/28 11:07:28;;;;;;;1.92;1.00;;;;;;;11.45;27.21;101783.84;5091422;28;20030;-69
2021/03/28 11:10:38;;;;;;;3.75;1.70;;;;;;;11.62;27.65;101779.66;5093316;28;20040;-69
2021/03/28 11:13:12;;;;;;;4.57;1.40;;;;;;;11.77;27.36;101773.66;5045322;28;20046;-69
2021/03/28 11:16:01;;;;;;;6.32;1.40;;;;;;;12.00;27.41;101778.97;5093427;28;20086;-69
2021/03/28 11:18:53;;;;;;;2.42;1.20;;;;;;;12.14;27.71;101772.16;5065363;28;20394;-69
2021/03/28 11:21:46;;;;;;;5.50;1.40;;;;;;;11.86;28.22;101713.63;5113846;28;20104;-70
2021/03/28 11:24:42;;;;;;;5.43;1.70;;;;;;;12.04;28.06;101756.50;5113532;28;20059;-68
2021/03/28 11:27:32;;;;;;;1.65;1.00;;;;;;;11.97;29.46;101763.06;5113400;28;20039;-70
2021/03/28 11:30:35;;;;;;;4.10;1.70;;;;;;;11.89;29.42;101750.97;5113657;28;20028;-68
2021/03/28 11:33:25;;;;;;;3.88;1.60;;;;;;;11.86;29.87;101751.94;5113388;28;20102;-69
2021/03/28 11:36:01;;;;;;;4.00;1.48;;;;;;;11.95;29.64;101754.22;5113183;28;20031;-69
2021/03/28 11:39:11;;;;;;;3.05;1.48;;;;;;;12.06;29.55;101763.59;5113344;28;20116;-69
2021/03/28 11:41:44;;;;;;;5.63;1.55;;;;;;;12.06;29.58;101761.78;5087169;28;20497;-68
2021/03/28 11:44:35;;;;;;;3.33;1.50;;;;;;;12.03;29.56;101757.44;5113311;28;20401;-69
2021/03/28 11:47:24;;;;;;;3.53;1.25;;;;;;;12.07;29.60;101728.78;5100781;28;20043;-69
2021/03/28 11:49:59;;;;;;;5.75;1.30;;;;;;;12.22;29.42;101754.00;5112920;28;20063;-68
2021/03/28 11:52:30;;;;;;;1.83;1.00;;;;;;;11.86;29.29;101722.50;5113166;28;20027;-69
2021/03/28 11:55:04;;;;;;;2.50;1.10;;;;;;;12.06;29.55;101720.81;5113063;28;20031;-69
2021/03/28 11:57:33;;;;;;;2.33;1.30;;;;;;;12.25;29.26;101749.34;5113156;28;20077;-69
2021/03/28 12:00:24;;;;;;;3.97;1.40;;;;;;;12.31;27.94;101749.09;5094831;28;20040;-70
2021/03/28 12:03:22;;;;;;;1.90;1.00;;;;;;;12.34;28.27;101737.38;5112815;28;20490;-69
2021/03/28 12:06:03;;;;;;;1.17;0.70;;;;;;;12.17;27.53;101724.78;5113021;28;20458;-69
2021/03/28 12:08:50;;;;;;;2.40;1.02;;;;;;;11.92;27.59;101727.63;5113021;28;20072;-70
2021/03/28 12:11:43;;;;;;;3.35;1.35;;;;;;;12.00;28.37;101736.19;5098551;28;20071;-69
2021/03/28 12:14:12;;;;;;;5.67;1.50;;;;;;;12.02;28.10;101734.31;5115476;28;20069;-69
2021/03/28 12:17:08;;;;;;;2.40;1.30;;;;;;;12.05;28.48;101722.59;5114242;28;20283;-70
2021/03/28 12:19:55;;;;;;;2.28;1.23;;;;;;;12.15;29.07;101718.59;5115197;28;20420;-69
2021/03/28 12:22:25;;;;;;;5.85;2.17;;;;;;;12.30;29.33;101725.09;5117054;28;20059;-69
2021/03/28 12:25:16;;;;;;;3.95;1.30;;;;;;;12.12;28.02;101709.84;5116552;28;20118;-68
2021/03/28 12:27:50;;;;;;;2.13;1.35;;;;;;;12.17;28.10;101714.06;5116486;28;20042;-68
2021/03/28 12:30:42;;;;;;;2.78;1.40;;;;;;;12.29;28.47;101713.53;5099492;28;20024;-69
2021/03/28 12:33:20;;;;;;;3.35;1.45;;;;;;;12.42;28.32;101705.81;5112186;28;20044;-69
2021/03/28 12:36:08;;;;;;;1.73;1.08;;;;;;;12.24;28.89;101707.50;5116519;28;20030;-70
2021/03/28 12:38:45;;;;;;;2.45;1.30;;;;;;;12.27;29.00;101679.75;5116436;28;20035;-69
2021/03/28 12:41:13;;;;;;;2.50;1.50;;;;;;;12.56;28.84;101694.50;5116753;28;20371;-69
2021/03/28 12:43:53;;;;;;;4.50;1.80;;;;;;;12.58;28.78;101704.19;5116163;28;20028;-69
2021/03/28 12:46:31;;;;;;;5.30;1.33;;;;;;;12.11;29.19;101695.59;5116282;28;20051;-70
2021/03/28 12:49:08;;;;;;;3.33;1.30;;;;;;;12.25;28.67;101690.50;5116375;28;20120;-69
2021/03/28 12:51:47;;;;;;;2.15;1.00;;;;;;;12.43;28.72;101693.31;5116329;28;20070;-68
2021/03/28 12:54:35;;;;;;;4.15;1.60;;;;;;;12.54;28.36;101694.53;5116364;28;20038;-69
2021/03/28 12:57:24;;;;;;;2.38;1.38;;;;;;;12.28;28.72;101674.34;5116351;28;20084;-69